Time;durP1;ratioP1;P1;durP2;ratioP2;P2;SDS_P1;SDS_P2;PMS_P1;PMS_P2;Temp;Humidity;BMP_temperature;BMP_pressure;BME280_temperature;BME280_humidity;BME280_pressure;Samples;Min_cycle;Max_cycle;Signal;HPM_P1;HPM_P2
2022/02/19 00:00:35;;;;;;;5.43;2.87;;;7.30;99.90;;;8.17;64.23;97351.97;5138518;28;20204;-62
2022/02/19 00:03:09;;;;;;;5.07;2.67;;;7.40;99.90;;;8.16;63.98;97352.75;5141286;28;20224;-63
2022/02/19 00:05:43;;;;;;;4.37;2.97;;;7.30;99.90;;;8.10;64.93;97355.81;5142153;28;20196;-62
2022/02/19 00:08:16;;;;;;;4.13;2.77;;;7.30;99.90;;;8.13;64.09;97368.72;5136832;28;20223;-62
2022/02/19 00:10:49;;;;;;;3.97;2.60;;;7.40;99.90;;;7.96;65.03;97356.69;5140253;28;20207;-62
2022/02/19 00:13:23;;;;;;;4.83;3.17;;;7.30;99.90;;;8.03;65.74;97357.91;5140430;28;20227;-62
2022/02/19 00:15:56;;;;;;;3.20;2.60;;;7.30;99.90;;;8.08;65.15;97362.47;5143183;28;20204;-62
2022/02/19 00:18:29;;;;;;;3.73;2.80;;;7.30;99.90;;;8.10;65.65;97371.09;5141173;28;20203;-62
2022/02/19 00:21:04;;;;;;;3.97;2.70;;;7.30;99.90;;;7.97;66.59;97375.38;5140911;28;20200;-62
2022/02/19 00:23:38;;;;;;;3.70;2.80;;;7.30;99.90;;;7.91;67.25;97383.53;5143678;28;20228;-62
2022/02/19 00:26:11;;;;;;;3.20;2.70;;;7.20;99.90;;;7.95;67.04;97384.56;5143167;28;20206;-62
2022/02/19 00:28:44;;;;;;;3.97;2.77;;;7.20;99.90;;;7.97;67.80;97383.88;5141899;28;20594;-62
2022/02/19 00:31:17;;;;;;;3.43;2.60;;;7.10;99.90;;;7.93;68.38;97389.59;5140815;28;20290;-62
2022/02/19 00:33:50;;;;;;;2.80;2.43;;;7.10;99.90;;;7.94;67.31;97393.00;5132097;28;20228;-62
2022/02/19 00:36:25;;;;;;;3.40;2.50;;;7.10;99.90;;;7.89;67.96;97400.34;5141903;28;20679;-62
2022/02/19 00:38:58;;;;;;;4.40;2.77;;;7.10;99.90;;;7.82;68.86;97403.34;5141916;28;20207;-62
2022/02/19 00:41:31;;;;;;;4.97;2.50;;;7.00;99.90;;;7.83;68.52;97416.13;5141592;28;20204;-62
2022/02/19 00:44:06;;;;;;;3.00;2.50;;;7.20;99.90;;;7.82;69.17;97423.69;5139285;28;20220;-62
2022/02/19 00:46:39;;;;;;;2.90;2.70;;;7.10;99.90;;;7.82;69.74;97426.22;5139144;28;20660;-62
2022/02/19 00:49:12;;;;;;;4.43;3.03;;;7.10;99.90;;;7.92;69.73;97425.97;5137274;28;20196;-62
2022/02/19 00:51:46;;;;;;;3.67;2.83;;;7.10;99.90;;;7.80;70.34;97435.44;5134509;28;20725;-62
2022/02/19 00:54:20;;;;;;;3.70;2.40;;;7.00;99.90;;;7.79;70.73;97433.69;5137452;28;20206;-61
2022/02/19 00:56:53;;;;;;;4.73;3.03;;;6.90;99.90;;;7.82;70.41;97429.66;5142664;28;20200;-62
2022/02/19 00:59:31;;;;;;;4.63;2.80;;;7.00;99.90;;;7.77;70.57;97443.75;5136867;28;20652;-62
2022/02/19 01:02:04;;;;;;;3.53;2.60;;;7.00;99.90;;;7.83;70.40;97443.25;5137620;28;20204;-62
2022/02/19 01:04:37;;;;;;;3.93;2.87;;;7.00;99.90;;;7.75;70.43;97445.31;5140075;28;20200;-62
2022/02/19 01:07:12;;;;;;;3.67;2.70;;;7.00;99.90;;;7.75;69.76;97444.44;5141219;28;20231;-62
2022/02/19 01:09:45;;;;;;;2.70;2.50;;;7.00;99.90;;;7.84;69.16;97452.63;5137855;28;20200;-62
2022/02/19 01:12:18;;;;;;;6.13;2.80;;;7.00;99.90;;;7.76;69.96;97464.91;5136598;28;20220;-62
2022/02/19 01:14:51;;;;;;;4.53;2.60;;;6.90;99.90;;;7.75;70.02;97462.25;5137798;28;20215;-62
2022/02/19 01:17:24;;;;;;;3.37;3.07;;;6.90;99.90;;;7.68;69.70;97451.69;5137374;28;20193;-62
2022/02/19 01:19:57;;;;;;;5.33;3.23;;;6.90;99.90;;;7.81;69.09;97457.53;5141671;28;20208;-62
2022/02/19 01:22:31;;;;;;;6.17;2.80;;;7.00;99.90;;;7.77;68.86;97460.69;5140568;28;20222;-62
2022/02/19 01:25:05;;;;;;;5.00;2.90;;;6.90;99.90;;;7.79;67.67;97477.81;5137983;28;20195;-62
2022/02/19 01:27:39;;;;;;;6.13;2.70;;;7.00;99.90;;;7.83;67.45;97472.09;5139839;28;20216;-62
2022/02/19 01:30:12;;;;;;;4.13;2.70;;;7.00;99.90;;;7.78;67.79;97470.06;5141556;28;20196;-61
2022/02/19 01:32:45;;;;;;;4.67;2.97;;;6.90;99.90;;;7.76;66.88;97484.38;5135298;28;20227;-61
2022/02/19 01:35:18;;;;;;;5.33;2.47;;;6.90;99.90;;;7.63;67.31;97483.59;5137366;28;20203;-62
2022/02/19 01:37:53;;;;;;;6.83;3.20;;;6.90;99.90;;;7.67;66.25;97480.47;5137964;28;20230;-61
2022/02/19 01:40:26;;;;;;;4.63;3.00;;;6.90;99.90;;;7.79;64.72;97469.28;5141866;28;20203;-62
2022/02/19 01:43:00;;;;;;;4.93;2.43;;;6.90;99.90;;;7.74;65.10;97483.38;5139809;28;20219;-62
2022/02/19 01:45:33;;;;;;;3.93;2.80;;;6.90;99.90;;;7.83;64.36;97481.41;5139172;28;20211;-62
2022/02/19 01:48:06;;;;;;;3.03;2.17;;;6.90;99.90;;;7.69;65.13;97488.19;5138734;28;20214;-62
2022/02/19 01:50:39;;;;;;;5.60;3.03;;;6.90;99.90;;;7.65;65.29;97489.66;5142003;28;20207;-62
2022/02/19 01:53:14;;;;;;;3.27;3.07;;;6.90;99.90;;;7.82;65.08;97494.91;5137177;28;20264;-62
2022/02/19 01:55:48;;;;;;;7.40;2.90;;;6.90;99.90;;;7.75;65.79;97496.19;5136997;28;20773;-62
2022/02/19 01:58:21;;;;;;;6.70;2.87;;;6.90;99.90;;;7.73;66.23;97494.34;5136127;28;20200;-62
2022/02/19 02:00:54;;;;;;;4.97;3.10;;;7.00;99.90;;;7.68;65.58;97489.84;5133659;28;20212;-62
2022/02/19 02:03:28;;;;;;;6.33;3.10;;;6.90;99.90;;;7.68;65.79;97481.34;5139608;28;20275;-62
2022/02/19 02:06:02;;;;;;;4.80;3.00;;;6.90;99.90;;;7.73;64.91;97479.09;5140110;28;20214;-62
2022/02/19 02:08:36;;;;;;;3.17;2.67;;;6.80;99.90;;;7.78;63.92;97485.31;5140150;28;20414;-62
2022/02/19 02:11:10;;;;;;;4.67;2.93;;;6.90;99.90;;;7.73;64.46;97489.28;5143825;28;20214;-62
2022/02/19 02:13:43;;;;;;;4.73;2.73;;;6.80;99.90;;;7.71;63.96;97488.28;5143526;28;20224;-62
2022/02/19 02:16:16;;;;;;;4.60;2.60;;;6.90;99.90;;;7.71;60.92;97506.09;5139751;28;20199;-62
2022/02/19 02:18:49;;;;;;;6.33;2.87;;;6.90;99.90;;;7.63;59.81;97498.84;5143459;28;20203;-62
2022/02/19 02:21:24;;;;;;;4.17;2.93;;;6.90;99.90;;;7.76;57.89;97495.41;5150570;28;20208;-62
2022/02/19 02:23:57;;;;;;;4.50;2.70;;;6.90;99.90;;;7.72;56.11;97505.28;5143966;28;20223;-62
2022/02/19 02:26:30;;;;;;;6.43;3.27;;;7.00;99.80;;;7.82;54.67;97505.09;5144267;28;20524;-62
2022/02/19 02:29:03;;;;;;;4.90;2.63;;;7.10;98.60;;;7.90;52.54;97481.88;5145154;28;20236;-62
2022/02/19 02:31:36;;;;;;;6.40;3.00;;;7.10;97.20;;;7.87;52.26;97502.06;5136982;28;20204;-62
2022/02/19 02:34:09;;;;;;;4.73;3.10;;;7.20;97.50;;;7.77;52.15;97502.25;5143398;28;20223;-62
2022/02/19 02:36:44;;;;;;;4.93;3.03;;;7.10;96.50;;;7.71;50.86;97513.72;5144565;28;20212;-62
2022/02/19 02:39:17;;;;;;;5.03;2.90;;;7.10;95.90;;;7.87;51.78;97514.78;5140707;28;20195;-61
2022/02/19 02:41:50;;;;;;;5.27;2.87;;;7.10;96.50;;;7.75;51.86;97528.38;5142864;28;20196;-61
2022/02/19 02:44:23;;;;;;;5.93;2.90;;;7.10;96.50;;;7.78;50.77;97518.41;5145282;28;20649;-62
2022/02/19 02:46:56;;;;;;;5.67;2.67;;;7.10;95.50;;;7.70;51.30;97525.56;5142856;28;20206;-63
2022/02/19 02:49:29;;;;;;;4.70;2.97;;;7.10;95.90;;;7.66;52.01;97529.56;5144526;28;20713;-62
2022/02/19 02:52:05;;;;;;;4.83;2.97;;;7.00;96.10;;;7.87;50.99;97534.25;5139728;28;20683;-62
2022/02/19 02:54:39;;;;;;;5.47;2.97;;;7.10;95.60;;;7.75;50.49;97538.56;5140642;28;20558;-62
2022/02/19 02:57:12;;;;;;;3.97;3.00;;;7.10;95.40;;;7.74;51.42;97541.91;5144621;28;20200;-62
2022/02/19 02:59:45;;;;;;;5.03;3.30;;;7.00;95.60;;;7.63;50.89;97544.63;5144395;28;20203;-62
2022/02/19 03:02:18;;;;;;;7.37;3.23;;;7.00;95.70;;;7.74;50.47;97541.91;5143772;28;20595;-61
2022/02/19 03:04:51;;;;;;;5.50;3.20;;;7.00;95.60;;;7.83;50.55;97547.56;5142722;28;20652;-62
2022/02/19 03:07:25;;;;;;;6.50;3.10;;;7.10;95.60;;;7.79;50.98;97546.50;5143480;28;20242;-62
2022/02/19 03:09:59;;;;;;;4.73;3.00;;;7.00;96.00;;;7.72;51.46;97561.25;5144168;28;20416;-62
2022/02/19 03:12:32;;;;;;;4.90;3.03;;;7.00;95.70;;;7.65;51.84;97563.41;5138091;28;20221;-63
2022/02/19 03:15:06;;;;;;;3.83;2.73;;;6.90;96.20;;;7.77;52.28;97567.53;5146490;28;20717;-62
2022/02/19 03:17:40;;;;;;;8.30;3.30;;;6.90;96.90;;;7.65;52.10;97573.59;5144450;28;20207;-63
2022/02/19 03:20:17;;;;;;;9.50;2.80;;;6.90;96.20;;;7.77;51.91;97578.56;5142270;28;20196;-63
2022/02/19 03:22:51;;;;;;;6.20;2.97;;;6.90;96.40;;;7.71;52.46;97584.94;5141467;28;20718;-62
2022/02/19 03:25:24;;;;;;;4.73;2.90;;;6.90;96.90;;;7.74;52.51;97583.47;5139459;28;20206;-63
2022/02/19 03:27:58;;;;;;;4.33;2.87;;;6.90;96.90;;;7.70;52.83;97589.16;5142113;28;22336;-61
2022/02/19 03:30:31;;;;;;;7.50;2.93;;;6.90;96.80;;;7.80;51.60;97588.06;5139610;28;20215;-62
2022/02/19 03:33:04;;;;;;;7.90;3.40;;;6.90;96.30;;;7.79;51.76;97601.59;5140959;28;20236;-61
2022/02/19 03:35:37;;;;;;;8.33;3.37;;;6.90;96.10;;;7.75;50.16;97599.59;5140531;28;20200;-62
2022/02/19 03:38:12;;;;;;;7.33;2.93;;;7.00;95.40;;;7.77;50.33;97605.69;5143394;28;20204;-63
2022/02/19 03:40:45;;;;;;;5.43;2.70;;;7.00;95.60;;;7.75;50.73;97612.31;5140725;28;20199;-61
2022/02/19 03:43:18;;;;;;;7.97;3.10;;;7.00;95.50;;;7.66;51.12;97613.50;5140278;28;20227;-60
2022/02/19 03:45:52;;;;;;;5.27;3.10;;;7.00;95.90;;;7.65;51.47;97614.28;5141127;28;20218;-62
2022/02/19 03:48:25;;;;;;;6.50;3.03;;;6.90;96.00;;;7.65;52.17;97619.38;5137660;28;20231;-62
2022/02/19 03:50:58;;;;;;;6.63;2.80;;;6.90;95.90;;;7.54;51.63;97627.97;5132450;28;20211;-62
2022/02/19 03:53:33;;;;;;;5.97;2.90;;;6.90;95.80;;;7.61;51.64;97642.88;5138642;28;20319;-62
2022/02/19 03:56:06;;;;;;;5.00;2.80;;;6.90;96.00;;;7.73;51.33;97639.34;5143139;28;20200;-61
2022/02/19 03:58:39;;;;;;;5.03;3.27;;;6.90;96.30;;;7.80;51.19;97646.59;5142182;28;20200;-62
2022/02/19 04:01:12;;;;;;;4.87;2.83;;;6.90;95.90;;;7.56;50.71;97654.41;5140868;28;20209;-60
2022/02/19 04:03:45;;;;;;;7.37;3.10;;;6.90;95.40;;;7.64;51.27;97662.50;5137522;28;20230;-62
2022/02/19 04:06:18;;;;;;;4.47;3.23;;;6.80;95.70;;;7.52;51.47;97662.59;5141585;28;20200;-60
2022/02/19 04:08:53;;;;;;;4.80;2.77;;;6.80;95.40;;;7.48;50.76;97668.28;5141129;28;20234;-62
2022/02/19 04:11:27;;;;;;;4.37;2.83;;;6.80;95.30;;;7.61;50.34;97678.47;5137948;28;20214;-62
2022/02/19 04:14:00;;;;;;;5.30;2.80;;;6.80;95.10;;;7.62;50.53;97664.97;5141336;28;20231;-62
2022/02/19 04:16:33;;;;;;;6.97;2.93;;;6.80;95.30;;;7.57;50.48;97673.06;5136908;28;20563;-62
2022/02/19 04:19:06;;;;;;;6.47;2.70;;;6.70;95.10;;;7.58;49.92;97678.28;5139502;28;20230;-62
2022/02/19 04:21:39;;;;;;;4.80;2.63;;;6.70;95.10;;;7.51;49.87;97678.63;5142954;28;20204;-62
2022/02/19 04:24:13;;;;;;;4.97;3.03;;;6.70;95.20;;;7.39;50.10;97695.63;5141486;28;20314;-62
2022/02/19 04:26:46;;;;;;;7.93;3.50;;;6.70;94.70;;;7.29;51.24;97695.78;5143311;28;20203;-61
2022/02/19 04:29:20;;;;;;;4.97;2.97;;;6.70;95.20;;;7.26;51.14;97703.22;5140439;28;20234;-60
2022/02/19 04:31:55;;;;;;;7.07;3.13;;;6.60;95.50;;;7.26;52.35;97708.28;5142220;28;20208;-62
2022/02/19 04:34:28;;;;;;;4.40;2.50;;;6.50;95.70;;;7.23;51.36;97720.00;5138603;28;20196;-61
2022/02/19 04:37:01;;;;;;;5.67;3.00;;;6.50;95.20;;;7.20;51.54;97714.72;5142027;28;20213;-60
2022/02/19 04:39:37;;;;;;;6.33;2.80;;;6.40;95.50;;;7.13;51.79;97722.72;5141989;28;20215;-61
2022/02/19 04:42:10;;;;;;;5.47;2.87;;;6.40;95.80;;;7.10;52.31;97726.72;5142732;28;20223;-62
2022/02/19 04:44:43;;;;;;;4.77;2.63;;;6.30;96.30;;;7.09;52.39;97714.78;5141534;28;20203;-63
2022/02/19 04:47:17;;;;;;;6.53;2.90;;;6.30;96.30;;;7.21;52.16;97741.94;5141689;28;20195;-62
2022/02/19 04:49:50;;;;;;;6.73;3.20;;;6.40;96.50;;;7.09;52.17;97730.91;5138595;28;20212;-63
2022/02/19 04:52:23;;;;;;;6.23;2.90;;;6.30;95.60;;;7.17;52.17;97724.69;5139850;28;20707;-62
2022/02/19 04:54:58;;;;;;;4.90;3.00;;;6.30;96.20;;;7.13;51.46;97743.06;5134695;28;20210;-62
2022/02/19 04:57:31;;;;;;;7.87;2.87;;;6.30;95.80;;;7.18;50.31;97746.81;5136925;28;20541;-63
2022/02/19 05:00:06;;;;;;;5.23;3.00;;;6.30;94.70;;;6.87;49.61;97746.34;5141839;28;20196;-60
2022/02/19 05:02:40;;;;;;;4.40;3.10;;;6.20;94.50;;;7.07;50.21;97742.66;5137853;28;20725;-62
2022/02/19 05:05:13;;;;;;;4.77;3.00;;;6.20;94.70;;;7.02;49.73;97749.06;5137697;28;20200;-62
2022/02/19 05:07:46;;;;;;;6.60;2.80;;;6.20;94.20;;;6.80;49.75;97754.31;5141357;28;20214;-61
2022/02/19 05:10:21;;;;;;;4.33;2.90;;;6.10;94.40;;;6.67;50.03;97755.13;5139028;28;20677;-62
2022/02/19 05:12:54;;;;;;;4.80;3.43;;;6.00;94.50;;;6.63;51.02;97763.28;5140167;28;20230;-62
2022/02/19 05:15:27;;;;;;;3.63;2.60;;;5.90;95.30;;;6.53;51.13;97764.31;5138121;28;20648;-62
2022/02/19 05:18:02;;;;;;;5.37;3.20;;;5.80;95.10;;;6.44;51.96;97771.28;5137259;28;20680;-62
2022/02/19 05:20:38;;;;;;;5.73;2.80;;;5.80;95.40;;;6.56;51.35;97765.31;5139029;28;20282;-60
2022/02/19 05:23:11;;;;;;;7.00;2.77;;;5.80;95.40;;;6.52;51.38;97774.34;5139563;28;20223;-62
2022/02/19 05:25:45;;;;;;;6.83;3.70;;;5.80;95.10;;;6.43;51.34;97776.22;5139987;28;20215;-62
2022/02/19 05:28:18;;;;;;;5.77;2.80;;;5.70;95.60;;;6.40;51.13;97784.50;5140674;28;20192;-60
2022/02/19 05:30:52;;;;;;;4.63;2.60;;;5.60;95.50;;;6.56;51.33;97786.50;5139950;28;20228;-61
2022/02/19 05:33:25;;;;;;;5.53;3.03;;;5.70;95.70;;;6.50;50.43;97788.59;5134100;28;20247;-61
2022/02/19 05:35:58;;;;;;;4.47;2.77;;;5.70;95.30;;;6.41;52.34;97795.53;5139837;28;20211;-61
2022/02/19 05:38:31;;;;;;;6.23;3.00;;;5.60;95.50;;;6.42;52.17;97792.25;5138680;28;20216;-62
2022/02/19 05:41:05;;;;;;;6.93;2.73;;;5.60;95.80;;;6.43;52.35;97805.03;5140049;28;20242;-62
2022/02/19 05:43:38;;;;;;;7.63;3.10;;;5.60;95.50;;;6.40;52.26;97811.53;5139475;28;20229;-61
2022/02/19 05:46:12;;;;;;;6.17;2.87;;;5.60;96.00;;;6.28;54.13;97817.50;5140257;28;20664;-61
2022/02/19 05:48:45;;;;;;;6.50;3.27;;;5.60;97.20;;;6.29;52.68;97821.78;5138167;28;20203;-62
2022/02/19 05:51:18;;;;;;;5.17;3.20;;;5.60;95.90;;;6.31;53.19;97824.47;5137298;28;20227;-61
2022/02/19 05:53:51;;;;;;;7.97;2.87;;;5.50;96.30;;;6.22;51.93;97826.34;5139227;28;20228;-61
2022/02/19 05:56:25;;;;;;;5.80;2.73;;;5.50;95.80;;;6.08;52.86;97833.81;5141241;28;20569;-62
2022/02/19 05:58:58;;;;;;;6.57;3.60;;;5.40;96.20;;;6.19;53.13;97839.69;5136786;28;20207;-61
2022/02/19 06:01:32;;;;;;;5.93;2.93;;;5.40;96.30;;;6.06;53.24;97855.63;5141058;28;20200;-61
2022/02/19 06:04:05;;;;;;;5.07;3.07;;;5.40;96.30;;;5.98;52.79;97854.22;5139638;28;20520;-61
2022/02/19 06:06:38;;;;;;;8.77;2.97;;;5.30;96.00;;;6.04;53.35;97856.31;5140286;28;20216;-61
2022/02/19 06:09:11;;;;;;;7.60;3.00;;;5.40;96.20;;;6.07;53.34;97859.09;5138781;28;20204;-59
2022/02/19 06:11:46;;;;;;;6.93;3.03;;;5.30;96.40;;;6.05;54.01;97865.69;5137361;28;20569;-62
2022/02/19 06:14:19;;;;;;;6.97;3.10;;;5.40;96.90;;;6.09;53.73;97862.59;5136199;28;20216;-59
2022/02/19 06:16:52;;;;;;;4.37;3.10;;;5.30;96.60;;;6.01;53.75;97874.72;5140448;28;20203;-60
2022/02/19 06:23:30;;;;;;;3.87;2.80;;;5.20;96.80;;;5.83;55.02;97891.94;5140986;28;20274;-60
2022/02/19 06:26:04;;;;;;;5.13;3.37;;;5.20;97.20;;;5.80;55.05;97894.25;5137282;28;20537;-62
2022/02/19 06:28:40;;;;;;;7.53;3.27;;;5.10;97.40;;;5.84;56.04;97906.41;5138836;28;20207;-61
2022/02/19 06:31:14;;;;;;;8.13;3.07;;;5.10;98.50;;;5.93;55.46;97910.41;5140432;28;20577;-61
2022/02/19 06:33:47;;;;;;;4.73;3.00;;;5.20;98.20;;;5.81;56.21;97911.25;5132883;28;20220;-62
2022/02/19 06:36:21;;;;;;;6.27;3.10;;;5.10;98.40;;;5.79;56.22;97906.81;5140244;28;20214;-61
2022/02/19 06:38:54;;;;;;;7.07;3.40;;;5.00;98.20;;;5.82;55.95;97918.06;5139602;28;20210;-60
2022/02/19 06:41:27;;;;;;;7.40;3.20;;;5.00;98.20;;;5.92;57.51;97923.84;5139765;28;20193;-61
2022/02/19 06:44:02;;;;;;;7.03;2.83;;;5.10;99.00;;;5.98;57.03;97929.41;5137879;28;20224;-62
2022/02/19 06:46:35;;;;;;;8.00;3.27;;;5.20;98.70;;;6.10;55.88;97930.34;5140553;28;20635;-60
2022/02/19 06:49:08;;;;;;;4.57;3.03;;;5.30;98.00;;;6.08;55.93;97932.75;5137530;28;20200;-61
2022/02/19 06:51:42;;;;;;;5.77;3.10;;;5.30;98.40;;;6.20;55.96;97942.94;5136127;28;20216;-62
2022/02/19 06:54:15;;;;;;;7.67;3.40;;;5.30;98.30;;;6.21;56.01;97949.81;5137563;28;20231;-59
2022/02/19 06:56:48;;;;;;;6.87;3.53;;;5.40;98.30;;;6.26;56.46;97948.47;5139436;28;20222;-61
2022/02/19 06:59:22;;;;;;;7.30;2.93;;;5.40;98.70;;;6.40;54.34;97954.59;5138503;28;20214;-62
2022/02/19 07:01:59;;;;;;;5.60;3.37;;;5.40;97.90;;;6.35;55.18;97960.09;5134996;28;20251;-63
2022/02/19 07:04:32;;;;;;;7.90;3.37;;;5.50;98.20;;;6.35;55.40;97968.59;5137826;28;20196;-61
2022/02/19 07:07:05;;;;;;;6.07;3.00;;;5.50;97.90;;;6.39;55.32;97980.75;5137009;28;20216;-62
2022/02/19 07:09:38;;;;;;;5.07;3.00;;;5.50;98.20;;;6.34;54.71;97978.63;5137014;28;20196;-61
2022/02/19 07:12:11;;;;;;;5.93;2.93;;;5.60;97.40;;;6.44;55.02;97987.06;5137597;28;20835;-61
2022/02/19 07:14:46;;;;;;;7.30;3.17;;;5.70;97.90;;;6.77;55.37;97995.41;5138330;28;20204;-61
2022/02/19 07:17:19;;;;;;;4.60;3.03;;;6.00;98.20;;;7.20;54.25;97988.38;5137763;28;20216;-62
2022/02/19 07:19:52;;;;;;;5.27;3.07;;;6.30;97.70;;;7.41;53.49;97983.91;5137195;28;20215;-61
2022/02/19 07:22:25;;;;;;;9.33;3.40;;;6.60;97.40;;;7.67;52.77;97994.28;5137987;28;20228;-62
2022/02/19 07:24:59;;;;;;;10.03;3.57;;;6.90;96.90;;;8.10;51.64;97987.09;5134449;28;20208;-61
2022/02/19 07:27:38;;;;;;;7.03;3.40;;;7.20;96.40;;;8.37;50.89;97991.41;5133481;28;20204;-62
2022/02/19 07:30:15;;;;;;;5.60;3.07;;;7.40;95.90;;;8.45;50.34;98001.38;5143048;28;20208;-62
2022/02/19 07:32:51;;;;;;;6.97;3.33;;;7.50;95.50;;;8.67;49.97;98002.78;5143277;28;20223;-63
2022/02/19 07:35:25;;;;;;;5.50;3.30;;;7.60;95.60;;;8.78;48.85;98005.28;5131851;28;20234;-62
2022/02/19 07:37:59;;;;;;;8.47;3.60;;;7.70;94.70;;;8.87;48.76;98011.75;5137779;28;20199;-60
2022/02/19 07:40:33;;;;;;;6.93;3.00;;;7.80;94.80;;;9.02;48.49;98008.56;5142322;28;20189;-59
2022/02/19 07:43:06;;;;;;;5.00;2.60;;;7.90;94.80;;;9.09;48.83;98016.59;5142266;28;20554;-63
2022/02/19 07:45:40;;;;;;;7.37;2.93;;;8.00;94.60;;;9.04;48.95;98016.28;5142615;28;20202;-63
2022/02/19 07:48:14;;;;;;;7.40;3.17;;;8.10;94.70;;;9.25;48.55;98027.91;5142892;28;20214;-60
2022/02/19 07:59:19;;;;;;;7.07;3.10;;;8.30;94.10;;;9.30;46.48;98047.69;5136901;28;20207;-61
2022/02/19 08:01:55;;;;;;;7.60;3.30;;;8.10;93.50;;;9.10;47.51;98056.59;5142874;28;20205;-62
2022/02/19 08:04:28;;;;;;;6.43;3.10;;;8.10;93.70;;;9.09;47.61;98049.75;5143203;28;20287;-62
2022/02/19 08:07:01;;;;;;;8.60;3.30;;;8.00;93.90;;;8.70;47.94;98059.03;5140441;28;20222;-62
2022/02/19 08:09:34;;;;;;;10.50;3.13;;;7.60;94.00;;;8.87;48.70;98061.09;5146777;28;20208;-58
2022/02/19 08:12:09;;;;;;;6.93;3.27;;;7.60;95.10;;;8.72;48.89;98063.47;5142151;28;20232;-59
2022/02/19 08:14:42;;;;;;;5.43;2.77;;;7.50;94.70;;;8.68;48.80;98065.72;5141965;28;20206;-59
2022/02/19 08:17:17;;;;;;;4.87;2.67;;;7.40;95.20;;;8.74;49.37;98078.88;5141739;28;20527;-59
2022/02/19 08:19:50;;;;;;;6.70;2.80;;;7.50;95.50;;;8.81;49.00;98083.59;5142472;28;20218;-62
2022/02/19 08:22:23;;;;;;;6.53;3.00;;;7.70;94.70;;;8.85;48.70;98089.78;5142574;28;20228;-61
2022/02/19 08:24:56;;;;;;;6.37;3.10;;;7.70;94.70;;;8.87;47.83;98078.94;5141650;28;20200;-57
2022/02/19 08:27:30;;;;;;;5.10;3.37;;;7.80;94.20;;;8.91;47.97;98090.19;5142149;28;20203;-57
2022/02/19 08:30:03;;;;;;;7.27;3.00;;;7.70;94.30;;;8.86;48.32;98089.88;5145305;28;20204;-63
2022/02/19 08:32:38;;;;;;;7.50;2.77;;;7.80;94.60;;;8.86;49.40;98086.47;5134607;28;20224;-61
2022/02/19 08:35:11;;;;;;;5.40;2.97;;;7.80;95.30;;;8.87;48.98;98084.03;5139665;28;20853;-62
2022/02/19 08:37:45;;;;;;;6.77;2.93;;;7.70;95.00;;;8.85;48.92;98095.78;5142824;28;20563;-61
2022/02/19 08:40:21;;;;;;;8.20;3.10;;;7.90;95.00;;;8.97;48.75;98091.50;5139127;28;20632;-61
2022/02/19 08:42:54;;;;;;;5.70;2.90;;;8.00;94.40;;;9.10;48.94;98084.66;5138388;28;20597;-60
2022/02/19 08:45:27;;;;;;;6.93;3.23;;;8.20;94.20;;;9.09;48.84;98086.31;5142669;28;20204;-62
2022/02/19 08:48:04;;;;;;;6.17;3.10;;;8.20;94.50;;;9.48;47.97;98084.63;5136411;28;20196;-62
2022/02/19 08:50:40;;;;;;;8.17;3.57;;;8.60;94.00;;;9.66;48.17;98092.56;5136842;28;20211;-62
2022/02/19 08:53:14;;;;;;;6.53;2.93;;;8.90;93.80;;;9.86;47.09;98087.06;5142861;28;20771;-62
2022/02/19 08:55:47;;;;;;;5.30;3.00;;;9.10;93.60;;;9.95;46.45;98078.22;5137136;28;20585;-62
2022/02/19 08:58:22;;;;;;;5.83;2.63;;;9.30;93.30;;;10.09;47.08;98085.06;5136910;28;20283;-62
2022/02/19 09:00:56;;;;;;;8.17;2.97;;;9.40;93.30;;;10.32;45.95;98089.97;5135586;28;20215;-62
2022/02/19 09:03:31;;;;;;;6.77;3.00;;;9.60;92.30;;;10.42;45.09;98091.44;5135230;28;20245;-62
2022/02/19 09:06:04;;;;;;;6.90;3.10;;;9.70;91.50;;;10.50;44.21;98091.88;5134662;28;20203;-62
2022/02/19 09:08:37;;;;;;;4.37;2.70;;;9.70;91.10;;;10.56;44.79;98080.38;5134204;28;20212;-62
2022/02/19 09:11:10;;;;;;;4.27;2.80;;;9.80;91.90;;;10.72;44.88;98094.94;5135195;28;20204;-63
2022/02/19 09:13:43;;;;;;;5.33;2.87;;;9.90;91.50;;;10.75;44.16;98096.81;5135503;28;20562;-62
2022/02/19 09:16:17;;;;;;;7.13;3.10;;;10.10;91.10;;;10.78;42.21;98090.19;5133706;28;20231;-62
2022/02/19 09:18:51;;;;;;;5.77;3.00;;;10.10;89.40;;;10.69;42.84;98097.31;5133366;28;20204;-62
2022/02/19 09:21:25;;;;;;;4.67;3.00;;;10.00;90.50;;;10.50;44.45;98099.53;5134646;28;20677;-62
2022/02/19 09:23:59;;;;;;;4.07;2.60;;;10.00;90.50;;;10.62;44.11;98095.19;5133177;28;20239;-62
2022/02/19 09:26:32;;;;;;;5.97;2.88;;;10.10;90.80;;;10.77;43.24;98098.66;5134319;28;20199;-62
2022/02/19 09:29:05;;;;;;;5.63;2.58;;;10.10;90.00;;;11.03;41.68;98107.00;5134808;28;20207;-62
2022/02/19 09:31:38;;;;;;;4.70;2.70;;;10.20;89.80;;;10.75;42.10;98095.13;5134770;28;20204;-62
2022/02/19 09:34:13;;;;;;;5.15;2.78;;;10.00;89.90;;;10.77;42.83;98106.34;5135703;28;20220;-62
2022/02/19 09:36:46;;;;;;;4.75;2.55;;;9.80;90.10;;;10.73;43.23;98101.84;5133901;28;20674;-62
2022/02/19 09:39:20;;;;;;;4.37;2.83;;;9.90;90.30;;;10.80;42.63;98116.75;5138815;28;20216;-62
2022/02/19 09:41:54;;;;;;;6.47;2.92;;;10.00;89.90;;;10.87;41.76;98118.00;5135890;28;20254;-62
2022/02/19 09:44:27;;;;;;;6.82;2.80;;;10.10;89.00;;;10.81;41.30;98112.50;5133514;28;20294;-62
2022/02/19 09:47:02;;;;;;;6.55;2.90;;;10.00;89.10;;;10.64;41.51;98115.72;5132711;28;20235;-62
2022/02/19 09:49:38;;;;;;;5.43;2.53;;;9.70;90.00;;;10.67;42.48;98115.91;5132873;28;20290;-62
2022/02/19 09:52:11;;;;;;;5.93;2.80;;;9.80;89.10;;;10.67;42.03;98114.22;5135905;28;20223;-62
2022/02/19 09:54:45;;;;;;;3.72;2.53;;;9.80;88.50;;;10.57;40.98;98117.03;5133472;28;20203;-62
2022/02/19 09:57:18;;;;;;;4.75;2.53;;;9.80;88.10;;;10.56;41.75;98120.38;5144345;28;20215;-61
2022/02/19 09:59:52;;;;;;;6.17;2.80;;;9.60;88.80;;;10.50;41.93;98126.00;5138270;28;20210;-62
2022/02/19 10:02:34;;;;;;;4.68;2.72;;;9.50;89.00;;;10.62;42.36;98133.53;5140058;28;20310;-62
2022/02/19 10:05:14;;;;;;;3.70;2.78;;;9.70;89.20;;;10.50;41.49;98136.22;5140218;28;20199;-62
2022/02/19 10:08:02;;;;;;;4.00;2.90;;;9.60;89.20;;;10.13;41.78;98149.22;5138817;28;20703;-62
2022/02/19 10:10:38;;;;;;;4.90;2.80;;;9.50;88.80;;;10.33;41.77;98136.81;5140734;28;20202;-62
2022/02/19 10:13:29;;;;;;;5.90;2.90;;;9.70;88.70;;;10.37;42.98;98149.03;5139966;28;20223;-62
2022/02/19 10:16:04;;;;;;;5.20;2.77;;;9.90;88.50;;;10.57;41.34;98152.81;5140913;28;20203;-61
2022/02/19 10:18:40;;;;;;;3.80;2.45;;;10.00;87.80;;;10.75;41.71;98153.94;5144527;28;20210;-61
2022/02/19 10:21:17;;;;;;;6.37;2.97;;;10.10;88.90;;;11.00;41.99;98148.63;5141282;28;20204;-62
2022/02/19 10:23:53;;;;;;;4.43;2.40;;;10.30;87.70;;;11.11;40.35;98138.16;5141304;28;20228;-62
2022/02/19 10:26:30;;;;;;;5.38;3.00;;;10.40;85.70;;;10.71;40.15;98157.09;5141328;28;20195;-62
2022/02/19 10:29:06;;;;;;;5.28;2.30;;;10.10;85.40;;;10.42;40.17;98154.44;5138680;28;20242;-62
2022/02/19 10:31:39;;;;;;;5.60;2.65;;;9.70;84.80;;;10.15;38.97;98157.84;5138418;28;20202;-62
2022/02/19 10:34:17;;;;;;;3.53;2.27;;;9.40;84.00;;;10.29;39.50;98160.44;5142015;28;20219;-62
2022/02/19 10:36:54;;;;;;;3.17;2.60;;;9.20;85.00;;;10.13;40.78;98156.00;5139454;28;20283;-62
2022/02/19 10:39:32;;;;;;;3.03;2.37;;;9.10;86.40;;;10.10;40.24;98150.69;5142980;28;20688;-62
2022/02/19 10:42:08;;;;;;;4.87;2.63;;;8.90;86.70;;;10.13;40.55;98154.34;5144256;28;20200;-62
2022/02/19 10:44:41;;;;;;;5.10;2.57;;;8.90;87.30;;;10.07;40.12;98148.84;5144408;28;20199;-62
2022/02/19 10:47:23;;;;;;;5.50;2.80;;;8.90;87.30;;;10.14;41.03;98152.66;5132848;28;20207;-62
2022/02/19 10:50:11;;;;;;;4.97;2.43;;;9.00;88.60;;;9.89;41.51;98153.63;5143970;28;20243;-61
2022/02/19 10:52:55;;;;;;;5.53;2.80;;;9.10;87.10;;;9.80;41.85;98152.16;5142838;28;20324;-63
2022/02/19 10:55:30;;;;;;;4.83;2.43;;;8.90;87.20;;;9.82;41.06;98156.59;5146113;28;20310;-62
2022/02/19 10:58:06;;;;;;;4.27;2.20;;;8.80;88.60;;;9.90;40.46;98150.31;5142565;28;20207;-62
2022/02/19 11:00:40;;;;;;;5.47;2.60;;;8.90;86.70;;;9.64;41.08;98165.59;5143759;28;20330;-62
2022/02/19 11:03:14;;;;;;;4.03;2.43;;;8.70;86.40;;;9.64;41.43;98165.59;5142939;28;20274;-62
2022/02/19 11:05:47;;;;;;;2.60;2.30;;;8.70;88.10;;;9.87;41.44;98162.88;5136186;28;20195;-62
2022/02/19 11:08:22;;;;;;;4.37;2.50;;;8.80;87.40;;;9.76;41.05;98161.31;5142818;28;20294;-62
2022/02/19 11:10:56;;;;;;;5.83;3.20;;;8.90;86.40;;;9.75;41.59;98159.53;5141302;28;20691;-62